createdAt,value
2019-02-06T00:00:28.970Z,99.99
2019-02-06T00:01:39.694Z,99.99
2019-02-06T00:02:50.366Z,99.99
2019-02-06T00:04:01.079Z,99.99
2019-02-06T00:05:18.322Z,99.99
2019-02-06T00:06:28.636Z,99.99
2019-02-06T00:07:39.173Z,99.99
2019-02-06T00:08:49.421Z,99.99
2019-02-06T00:09:59.601Z,99.99
2019-02-06T00:11:09.528Z,99.99
2019-02-06T00:12:19.816Z,99.99
2019-02-06T00:13:30.042Z,99.99
2019-02-06T00:14:40.332Z,99.99
2019-02-06T00:15:50.561Z,99.99
2019-02-06T00:17:00.752Z,99.99
2019-02-06T00:18:10.701Z,99.99
2019-02-06T00:19:20.990Z,99.99
2019-02-06T00:20:31.128Z,99.99
2019-02-06T00:21:41.228Z,99.99
2019-02-06T00:22:51.051Z,99.99
2019-02-06T00:24:01.158Z,99.99
2019-02-06T00:25:11.238Z,99.99
2019-02-06T00:26:21.335Z,99.99
2019-02-06T00:27:31.161Z,99.99
2019-02-06T00:28:41.009Z,99.99
2019-02-06T00:29:50.826Z,99.99
2019-02-06T00:31:00.406Z,99.99
2019-02-06T00:32:10.602Z,99.99
2019-02-06T00:33:20.411Z,99.99
2019-02-06T00:34:30.492Z,99.99
2019-02-06T00:35:40.068Z,99.99
2019-02-06T00:36:50.195Z,99.99
2019-02-06T00:38:00.304Z,99.99
2019-02-06T00:39:13.225Z,99.99
2019-02-06T00:40:23.295Z,99.99
2019-02-06T00:41:33.102Z,99.99
2019-02-06T00:42:42.914Z,99.99
2019-02-06T00:43:52.745Z,99.99
2019-02-06T00:45:02.329Z,99.99
2019-02-06T00:46:12.398Z,99.99
2019-02-06T00:47:22.477Z,99.99
2019-02-06T00:48:32.603Z,99.99
2019-02-06T00:49:42.710Z,99.99
2019-02-06T00:50:52.780Z,99.99
2019-02-06T00:52:02.853Z,99.99
2019-02-06T00:53:12.927Z,99.99
2019-02-06T00:54:22.785Z,99.99
2019-02-06T00:55:32.628Z,99.99
2019-02-06T00:56:42.833Z,99.99
2019-02-06T00:57:52.652Z,99.99
2019-02-06T00:59:02.709Z,99.99
2019-02-06T01:00:12.980Z,99.99
2019-02-06T01:01:23.653Z,99.99
2019-02-06T01:02:33.725Z,99.99
2019-02-06T01:03:43.806Z,99.99
2019-02-06T01:04:53.908Z,99.99
2019-02-06T01:06:04.052Z,99.99
2019-02-06T01:07:14.139Z,99.99
2019-02-06T01:08:24.295Z,99.99
2019-02-06T01:09:34.495Z,99.99
2019-02-06T01:10:44.628Z,99.99
2019-02-06T01:11:55.378Z,99.99
2019-02-06T01:13:05.739Z,99.99
2019-02-06T01:14:16.380Z,99.99
2019-02-06T01:15:27.052Z,99.99
2019-02-06T01:16:38.287Z,99.99
2019-02-06T01:17:49.216Z,99.99
2019-02-06T01:18:59.809Z,99.99
2019-02-06T01:20:09.848Z,99.99
2019-02-06T01:21:19.923Z,99.99
2019-02-06T01:22:29.919Z,99.99
2019-02-06T01:23:40.032Z,99.99
2019-02-06T01:24:49.857Z,99.99
2019-02-06T01:25:59.953Z,99.99
2019-02-06T01:27:10.010Z,99.99
2019-02-06T01:28:20.094Z,99.99
2019-02-06T01:29:30.218Z,99.99
2019-02-06T01:30:40.309Z,99.99
2019-02-06T01:31:50.116Z,99.99
2019-02-06T01:33:01.192Z,99.99
2019-02-06T01:34:11.261Z,99.99
2019-02-06T01:35:21.082Z,99.99
2019-02-06T01:36:30.639Z,99.99
2019-02-06T01:37:40.737Z,99.99
2019-02-06T01:38:50.938Z,99.99
2019-02-06T01:40:01.017Z,99.99
2019-02-06T01:41:10.864Z,99.99
2019-02-06T01:42:20.994Z,99.99
2019-02-06T01:43:31.053Z,99.99
2019-02-06T01:44:40.609Z,99.99
2019-02-06T01:45:50.545Z,99.99
2019-02-06T01:47:00.468Z,99.99
2019-02-06T01:48:10.564Z,99.99
2019-02-06T01:49:20.378Z,99.99
2019-02-06T01:50:30.433Z,99.99
2019-02-06T01:51:40.264Z,99.99
2019-02-06T01:52:50.503Z,99.99
2019-02-06T01:54:00.690Z,99.99
2019-02-06T01:55:10.527Z,99.99
2019-02-06T01:56:20.605Z,99.99
2019-02-06T01:57:30.690Z,99.99
2019-02-06T01:58:40.750Z,99.99
2019-02-06T01:59:50.827Z,99.99
2019-02-06T02:01:01.296Z,99.99
2019-02-06T02:02:11.120Z,99.99
2019-02-06T02:03:20.993Z,99.99
2019-02-06T02:04:31.065Z,99.99
2019-02-06T02:05:41.144Z,99.99
2019-02-06T02:06:51.216Z,99.99
2019-02-06T02:08:01.291Z,99.99
2019-02-06T02:09:11.123Z,99.99
2019-02-06T02:10:20.977Z,99.99
2019-02-06T02:11:30.823Z,99.99
2019-02-06T02:12:40.890Z,99.99
2019-02-06T02:13:50.715Z,99.99
2019-02-06T02:15:02.182Z,99.99
2019-02-06T02:16:12.263Z,99.99
2019-02-06T02:17:22.336Z,99.99
2019-02-06T02:18:32.186Z,99.99
2019-02-06T02:19:41.754Z,99.99
2019-02-06T02:20:51.802Z,99.99
2019-02-06T02:22:01.672Z,99.99
2019-02-06T02:23:11.753Z,99.99
2019-02-06T02:24:21.345Z,99.99
2019-02-06T02:25:31.430Z,99.99
2019-02-06T02:26:41.251Z,99.99
2019-02-06T02:27:51.300Z,99.99
2019-02-06T02:29:01.387Z,99.99
2019-02-06T02:30:11.633Z,99.99
2019-02-06T02:31:22.166Z,99.99
2019-02-06T02:32:33.998Z,99.99
2019-02-06T02:33:44.735Z,99.99
2019-02-06T02:34:55.166Z,99.99
2019-02-06T02:36:17.671Z,99.99
2019-02-06T02:37:27.732Z,99.99
2019-02-06T02:38:37.803Z,99.99
2019-02-06T02:39:47.869Z,99.99
2019-02-06T02:40:57.680Z,99.99
2019-02-06T02:42:07.766Z,99.99
2019-02-06T02:43:17.619Z,99.99
2019-02-06T02:44:27.687Z,99.99
2019-02-06T02:45:37.739Z,99.99
2019-02-06T02:46:47.531Z,99.99
2019-02-06T02:47:57.613Z,99.99
2019-02-06T02:49:07.447Z,99.99
2019-02-06T02:50:17.062Z,99.99
2019-02-06T02:51:26.995Z,99.99
2019-02-06T02:52:37.115Z,99.99
2019-02-06T02:53:46.938Z,99.99
2019-02-06T02:54:57.024Z,99.99
2019-02-06T02:56:07.307Z,99.99
2019-02-06T02:57:17.151Z,99.99
2019-02-06T02:58:26.976Z,99.99
2019-02-06T02:59:37.053Z,99.99
2019-02-06T03:00:47.142Z,99.99
2019-02-06T03:01:57.212Z,99.99
2019-02-06T03:34:27.468Z,93.84
2019-02-06T03:35:37.572Z,94.32
2019-02-06T03:36:47.645Z,95.26
2019-02-06T03:37:57.443Z,96.21
2019-02-06T03:39:07.903Z,97.15
2019-02-06T03:40:17.986Z,97.63
2019-02-06T03:41:28.050Z,98.28
2019-02-06T03:42:38.128Z,98.57
2019-02-06T03:43:47.969Z,99.8
2019-02-06T03:44:58.131Z,99.99
2019-02-06T03:46:08.572Z,99.99
2019-02-06T03:47:19.256Z,99.99
2019-02-06T03:48:29.746Z,99.99
2019-02-06T03:49:42.727Z,99.99
2019-02-06T03:50:53.842Z,99.99
2019-02-06T03:52:04.526Z,99.99
2019-02-06T03:53:15.078Z,99.99
2019-02-06T03:54:25.447Z,99.99
2019-02-06T03:55:35.378Z,99.99
2019-02-06T03:56:45.445Z,99.99
2019-02-06T03:57:55.520Z,99.99
2019-02-06T03:59:05.073Z,99.99
2019-02-06T04:00:15.189Z,99.99
2019-02-06T04:01:25.576Z,99.99
2019-02-06T04:02:35.649Z,99.99
2019-02-06T04:03:45.733Z,99.99
2019-02-06T04:04:55.814Z,99.99
2019-02-06T04:06:05.906Z,99.99
2019-02-06T04:07:15.997Z,99.99
2019-02-06T04:08:26.121Z,99.99
2019-02-06T04:09:36.231Z,99.99
2019-02-06T04:10:46.309Z,99.99
2019-02-06T04:11:56.378Z,99.99
2019-02-06T04:13:06.560Z,99.99
2019-02-06T04:14:16.635Z,99.99
2019-02-06T04:15:26.812Z,99.99
2019-02-06T04:16:36.885Z,99.99
2019-02-06T04:17:46.468Z,99.99
2019-02-06T04:18:59.855Z,99.99
2019-02-06T04:20:09.654Z,99.99
2019-02-06T04:21:19.722Z,99.99
2019-02-06T04:22:29.781Z,99.99
2019-02-06T04:23:39.613Z,99.99
2019-02-06T04:24:51.653Z,99.99
2019-02-06T04:26:01.840Z,99.99
2019-02-06T04:27:11.730Z,99.99
2019-02-06T04:28:21.779Z,99.99
2019-02-06T04:29:31.864Z,99.99
2019-02-06T04:30:41.681Z,99.99
2019-02-06T04:31:51.774Z,99.99
2019-02-06T04:33:01.906Z,99.99
2019-02-06T04:34:11.478Z,99.99
2019-02-06T04:35:21.383Z,99.99
2019-02-06T04:36:31.484Z,99.99
2019-02-06T04:37:41.579Z,99.99
2019-02-06T04:38:51.781Z,99.99
2019-02-06T04:40:01.593Z,99.99
2019-02-06T04:41:11.416Z,99.99
2019-02-06T04:42:21.500Z,99.99
2019-02-06T04:43:31.651Z,99.99
2019-02-06T04:44:41.880Z,99.99
2019-02-06T04:45:51.951Z,99.99
2019-02-06T04:47:02.120Z,99.99
2019-02-06T04:48:11.940Z,99.99
2019-02-06T04:49:22.018Z,99.99
2019-02-06T04:50:32.150Z,99.99
2019-02-06T04:51:42.540Z,99.99
2019-02-06T04:52:52.699Z,99.99
2019-02-06T04:54:03.527Z,99.99
2019-02-06T04:55:14.181Z,99.99
2019-02-06T04:56:25.178Z,99.99
2019-02-06T04:57:36.408Z,99.99
2019-02-06T04:58:47.227Z,99.99
2019-02-06T04:59:58.000Z,99.99
2019-02-06T05:01:09.528Z,99.99
2019-02-06T05:02:19.585Z,99.99
2019-02-06T05:03:29.415Z,99.99
2019-02-06T05:04:39.502Z,99.99
2019-02-06T05:05:49.603Z,99.99
2019-02-06T05:06:59.690Z,99.99
2019-02-06T05:08:21.637Z,99.99
2019-02-06T05:09:31.710Z,99.99
2019-02-06T05:10:41.771Z,99.99
2019-02-06T05:11:51.591Z,99.99
2019-02-06T05:13:01.414Z,99.99
2019-02-06T05:14:11.463Z,99.99
2019-02-06T05:15:21.557Z,99.99
2019-02-06T05:16:31.630Z,99.99
2019-02-06T05:17:41.746Z,99.99
2019-02-06T05:18:51.652Z,99.99
2019-02-06T05:20:01.622Z,99.99
2019-02-06T05:21:11.702Z,99.99
2019-02-06T05:22:21.526Z,99.99
2019-02-06T05:23:31.595Z,99.99
2019-02-06T05:24:41.679Z,99.99
2019-02-06T05:25:51.855Z,99.99
2019-02-06T05:27:01.725Z,99.99
2019-02-06T05:28:11.807Z,99.99
2019-02-06T05:29:23.338Z,99.99
2019-02-06T05:30:33.461Z,99.99
2019-02-06T05:31:43.544Z,99.99
2019-02-06T05:32:53.641Z,99.99
2019-02-06T05:34:04.023Z,99.99
2019-02-06T05:35:13.855Z,99.99
2019-02-06T05:36:23.691Z,99.99
2019-02-06T05:37:34.935Z,99.99
2019-02-06T05:38:45.015Z,99.99
2019-02-06T05:39:55.130Z,99.99
2019-02-06T05:41:04.940Z,99.99
2019-02-06T05:42:14.795Z,99.99
2019-02-06T05:43:24.963Z,99.99
2019-02-06T05:44:34.790Z,99.99
2019-02-06T05:45:44.904Z,99.99
2019-02-06T05:46:54.999Z,99.99
2019-02-06T05:48:05.132Z,99.99
2019-02-06T05:49:15.244Z,99.99
2019-02-06T05:50:25.345Z,99.99
2019-02-06T05:51:35.183Z,99.99
2019-02-06T05:52:45.111Z,99.99
2019-02-06T05:53:54.955Z,99.99
2019-02-06T05:55:07.257Z,99.99
2019-02-06T05:56:17.729Z,99.99
2019-02-06T05:57:27.570Z,99.99
2019-02-06T05:58:37.986Z,99.99
2019-02-06T05:59:48.942Z,99.99
2019-02-06T06:00:59.878Z,99.99
2019-02-06T06:02:10.716Z,99.99
2019-02-06T06:03:21.946Z,99.99
2019-02-06T06:04:32.733Z,99.99
2019-02-06T06:05:43.159Z,99.99
2019-02-06T06:06:53.673Z,99.99
2019-02-06T06:08:03.797Z,99.99
2019-02-06T06:09:13.887Z,99.99
2019-02-06T06:10:23.687Z,99.99
2019-02-06T06:11:33.562Z,99.99
2019-02-06T06:12:43.422Z,99.99
2019-02-06T06:13:53.539Z,99.99
2019-02-06T06:15:03.986Z,99.99
2019-02-06T06:16:13.813Z,99.99
2019-02-06T06:17:23.662Z,99.99
2019-02-06T06:18:33.760Z,99.99
2019-02-06T06:19:43.591Z,99.99
2019-02-06T06:20:53.676Z,99.99
2019-02-06T06:22:03.745Z,99.99
2019-02-06T06:23:13.817Z,99.99
2019-02-06T06:24:23.994Z,99.99
2019-02-06T06:25:34.086Z,99.99
2019-02-06T06:26:44.170Z,99.99
2019-02-06T06:27:54.257Z,99.99
2019-02-06T06:29:05.188Z,99.99
2019-02-06T06:30:15.393Z,99.99
2019-02-06T06:31:25.480Z,99.99
2019-02-06T06:32:35.311Z,99.99
2019-02-06T06:33:45.161Z,99.99
2019-02-06T06:34:55.245Z,99.99
2019-02-06T06:36:05.480Z,99.99
2019-02-06T06:37:15.572Z,99.99
2019-02-06T06:38:25.635Z,99.99
2019-02-06T06:39:35.457Z,99.99
2019-02-06T06:40:45.558Z,99.99
2019-02-06T06:41:55.398Z,99.71
2019-02-06T06:43:05.606Z,99.9
2019-02-06T06:44:19.135Z,99.62
2019-02-06T06:45:29.215Z,99.9
2019-02-06T06:46:39.049Z,99.9
2019-02-06T06:47:49.147Z,99.62
2019-02-06T06:48:59.210Z,99.43
2019-02-06T06:50:09.299Z,99.52
2019-02-06T06:51:19.382Z,99.9
2019-02-06T06:52:29.457Z,99.62
2019-02-06T06:53:39.384Z,99.71
2019-02-06T06:54:49.448Z,99.9
2019-02-06T06:55:59.511Z,99.71
2019-02-06T06:57:12.096Z,99.71
2019-02-06T06:58:22.573Z,99.19
2019-02-06T06:59:32.707Z,99.1
2019-02-06T07:00:42.871Z,99.19
2019-02-06T07:01:53.060Z,99.1
2019-02-06T07:03:03.231Z,99.1
2019-02-06T07:04:13.047Z,99.48
2019-02-06T07:05:23.167Z,99.01
2019-02-06T07:06:33.382Z,99.01
2019-02-06T07:07:43.576Z,99.1
2019-02-06T07:08:54.110Z,99.19
2019-02-06T07:10:05.203Z,99.1
2019-02-06T07:11:18.094Z,98.72
2019-02-06T07:12:28.849Z,98.77
2019-02-06T07:13:39.987Z,98.58
2019-02-06T07:14:50.330Z,98.58
2019-02-06T07:16:02.899Z,98.77
2019-02-06T07:17:12.982Z,98.68
2019-02-06T07:18:23.070Z,98.86
2019-02-06T07:19:33.156Z,98.96
2019-02-06T07:20:43.228Z,98.86
2019-02-06T07:21:53.051Z,99.15
2019-02-06T07:23:03.268Z,99.05
2019-02-06T07:24:13.354Z,99.43
2019-02-06T07:25:23.450Z,98.96
2019-02-06T07:26:33.286Z,98.86
2019-02-06T07:27:43.410Z,98.96
2019-02-06T07:28:53.530Z,99.05
2019-02-06T07:30:05.120Z,99.39
2019-02-06T07:31:15.200Z,98.82
2019-02-06T07:32:25.135Z,98.82
2019-02-06T07:33:35.236Z,99.01
2019-02-06T07:34:45.173Z,98.72
2019-02-06T07:35:55.005Z,98.91
2019-02-06T07:37:05.781Z,98.91
2019-02-06T07:38:26.726Z,98.54
2019-02-06T07:39:36.844Z,98.82
2019-02-06T07:40:46.924Z,98.82
2019-02-06T07:41:56.756Z,98.25
2019-02-06T07:43:06.590Z,98.3
2019-02-06T07:44:16.662Z,98.39
2019-02-06T07:45:26.479Z,98.58
2019-02-06T07:46:36.549Z,98.39
2019-02-06T07:47:46.628Z,98.11
2019-02-06T07:48:56.734Z,98.3
2019-02-06T07:50:06.873Z,98.3
2019-02-06T07:51:16.931Z,98.49
2019-02-06T07:52:26.997Z,98.39
2019-02-06T07:53:37.100Z,98.96
2019-02-06T07:54:47.178Z,99.15
2019-02-06T07:55:57.048Z,98.96
2019-02-06T07:57:07.118Z,99.25
2019-02-06T07:58:17.206Z,99.53
2019-02-06T07:59:27.298Z,99.06
2019-02-06T08:00:37.384Z,99.53
2019-02-06T08:01:47.491Z,99.25
2019-02-06T08:02:57.597Z,99.25
2019-02-06T08:04:07.449Z,99.34
2019-02-06T08:05:17.536Z,99.53
2019-02-06T08:06:27.928Z,99.53
2019-02-06T08:07:38.549Z,99.53
2019-02-06T08:08:49.063Z,99.44
2019-02-06T08:10:00.010Z,99.15
2019-02-06T08:11:10.571Z,99.34
2019-02-06T08:12:21.787Z,99.34
2019-02-06T08:13:32.724Z,99.25
2019-02-06T08:14:43.151Z,99.44
2019-02-06T08:15:53.677Z,99.25
2019-02-06T08:17:04.440Z,98.96
2019-02-06T08:18:14.387Z,98.77
2019-02-06T08:19:24.460Z,98.68
2019-02-06T08:20:34.544Z,98.68
2019-02-06T08:21:44.635Z,98.87
2019-02-06T08:22:57.568Z,98.87
2019-02-06T08:24:07.652Z,98.77
2019-02-06T08:25:17.497Z,98.82
2019-02-06T08:26:27.623Z,98.82
2019-02-06T08:27:37.197Z,98.92
2019-02-06T08:28:47.279Z,98.82
2019-02-06T08:29:57.108Z,98.82
2019-02-06T08:31:06.965Z,99.01
2019-02-06T08:32:17.052Z,99.01
2019-02-06T08:33:26.852Z,98.63
2019-02-06T08:34:36.959Z,98.92
2019-02-06T08:35:47.064Z,98.92
2019-02-06T08:36:57.163Z,99.11
2019-02-06T08:38:07.244Z,98.82
2019-02-06T08:39:17.342Z,98.92
2019-02-06T08:40:27.414Z,98.92
2019-02-06T08:41:37.495Z,98.82
2019-02-06T08:42:47.592Z,98.92
2019-02-06T08:43:57.941Z,99.01
2019-02-06T08:45:09.688Z,98.92
2019-02-06T08:46:19.803Z,99.01
2019-02-06T08:47:29.665Z,98.92
2019-02-06T08:48:39.526Z,98.82
2019-02-06T08:49:49.599Z,98.87
2019-02-06T08:50:59.675Z,98.87
2019-02-06T08:52:09.525Z,98.97
2019-02-06T08:53:19.619Z,98.87
2019-02-06T08:54:29.709Z,98.97
2019-02-06T08:55:39.840Z,98.87
2019-02-06T08:56:49.922Z,98.78
2019-02-06T08:57:59.744Z,98.97
2019-02-06T08:59:09.919Z,99.16
2019-02-06T09:00:19.946Z,98.49
2019-02-06T09:01:29.758Z,98.49
2019-02-06T09:02:39.833Z,98.64
2019-02-06T09:03:49.642Z,98.35
2019-02-06T09:04:59.704Z,98.64
2019-02-06T09:06:12.637Z,98.64
2019-02-06T09:07:22.463Z,98.54
2019-02-06T09:08:32.544Z,98.45
2019-02-06T09:09:43.552Z,98.35
2019-02-06T09:10:54.032Z,98.26
2019-02-06T09:12:04.399Z,98.45
2019-02-06T09:13:14.801Z,98.35
2019-02-06T09:14:25.090Z,98.83
2019-02-06T09:15:35.597Z,99.02
2019-02-06T09:16:46.719Z,98.92
2019-02-06T09:17:57.439Z,98.73
2019-02-06T09:19:08.119Z,99.11
2019-02-06T09:20:18.404Z,99.02
2019-02-06T09:21:28.445Z,99.02
2019-02-06T09:22:38.717Z,98.54
2019-02-06T09:23:48.840Z,98.45
2019-02-06T09:24:59.076Z,98.35
2019-02-06T09:26:09.252Z,98.4
2019-02-06T09:27:19.358Z,98.59
2019-02-06T09:28:29.450Z,98.69
2019-02-06T09:29:42.656Z,98.4
2019-02-06T09:30:52.750Z,98.4
2019-02-06T09:32:02.831Z,98.59
2019-02-06T09:33:12.912Z,98.59
2019-02-06T09:34:22.967Z,99.21
2019-02-06T09:35:33.031Z,99.07
2019-02-06T09:36:42.959Z,99.07
2019-02-06T09:37:53.050Z,99.16
2019-02-06T09:39:14.071Z,98.88
2019-02-06T09:40:24.182Z,99.07
2019-02-06T09:41:34.309Z,98.5
2019-02-06T09:42:44.379Z,98.59
2019-02-06T09:43:54.457Z,98.5
2019-02-06T09:45:04.566Z,98.4
2019-02-06T09:46:14.418Z,98.4
2019-02-06T09:47:24.519Z,98.69
2019-02-06T09:48:34.341Z,98.5
2019-02-06T09:49:44.447Z,98.4
2019-02-06T09:50:57.277Z,98.5
2019-02-06T09:52:07.381Z,98.79
2019-02-06T09:53:17.516Z,99.07
2019-02-06T09:54:27.391Z,98.5
2019-02-06T09:55:37.458Z,98.69
2019-02-06T09:56:50.336Z,98.4
2019-02-06T09:58:01.588Z,98.36
2019-02-06T09:59:11.734Z,98.74
2019-02-06T10:00:22.200Z,98.64
2019-02-06T10:01:32.036Z,98.74
2019-02-06T10:02:42.094Z,98.55
2019-02-06T10:03:52.576Z,98.36
2019-02-06T10:05:02.957Z,98.17
2019-02-06T10:06:13.816Z,98.26
2019-02-06T10:07:24.439Z,98.45
2019-02-06T10:08:35.129Z,98.07
2019-02-06T10:09:45.606Z,98.36
2019-02-06T10:10:56.647Z,98.36
2019-02-06T10:12:07.487Z,98.36
2019-02-06T10:13:20.045Z,98.36
2019-02-06T10:14:30.241Z,98.12
2019-02-06T10:15:40.307Z,97.93
2019-02-06T10:16:50.514Z,97.93
2019-02-06T10:18:01.227Z,98.12
2019-02-06T10:19:11.318Z,98.5
2019-02-06T10:20:21.175Z,98.6
2019-02-06T10:21:31.259Z,98.12
2019-02-06T10:22:41.404Z,98.6
2019-02-06T10:23:51.495Z,98.6
2019-02-06T10:25:01.327Z,98.41
2019-02-06T10:26:11.428Z,98.41
2019-02-06T10:27:23.948Z,98.12
2019-02-06T10:28:34.298Z,99.02
2019-02-06T10:29:43.969Z,98.6
2019-02-06T10:30:53.803Z,98.12
2019-02-06T10:32:03.940Z,98.31
2019-02-06T10:33:13.778Z,98.41
2019-02-06T10:34:26.557Z,98.31
2019-02-06T10:35:36.633Z,98.5
2019-02-06T10:36:46.715Z,98.6
2019-02-06T10:37:56.527Z,98.31
2019-02-06T10:39:06.617Z,98.22
2019-02-06T10:40:16.494Z,98.27
2019-02-06T10:41:26.415Z,97.98
2019-02-06T10:42:36.517Z,98.36
2019-02-06T10:43:46.602Z,98.12
2019-02-06T10:44:56.447Z,98.46
2019-02-06T10:46:06.264Z,98.27
2019-02-06T10:47:16.368Z,98.08
2019-02-06T10:48:26.237Z,98.17
2019-02-06T10:49:35.815Z,98.65
2019-02-06T10:50:45.626Z,98.55
2019-02-06T10:51:55.521Z,98.36
2019-02-06T10:53:07.055Z,98.65
2019-02-06T10:54:17.254Z,98.55
2019-02-06T10:55:27.351Z,98.65
2019-02-06T10:56:37.432Z,98.36
2019-02-06T10:57:47.017Z,98.17
2019-02-06T10:58:56.846Z,98.36
2019-02-06T11:00:06.877Z,98.17
2019-02-06T11:01:17.283Z,98.36
2019-02-06T11:02:27.371Z,98.46
2019-02-06T11:03:39.811Z,98.27
2019-02-06T11:04:49.646Z,98.27
2019-02-06T11:05:59.726Z,98.13
2019-02-06T11:07:10.759Z,98.46
2019-02-06T11:08:21.237Z,98.65
2019-02-06T11:09:31.374Z,98.46
2019-02-06T11:10:51.726Z,98.74
2019-02-06T11:12:01.746Z,98.83
2019-02-06T11:13:11.742Z,98.65
2019-02-06T11:14:21.848Z,98.74
2019-02-06T11:15:31.898Z,98.65
2019-02-06T11:16:41.998Z,98.55
2019-02-06T11:17:52.100Z,98.46
2019-02-06T11:19:02.189Z,98.55
2019-02-06T11:20:12.299Z,98.46
2019-02-06T11:21:22.386Z,98.46
2019-02-06T11:22:32.464Z,98.74
2019-02-06T11:23:42.558Z,98.74
2019-02-06T11:24:52.650Z,99.12
2019-02-06T11:26:02.870Z,99.12
2019-02-06T11:27:12.946Z,99.22
2019-02-06T11:28:22.525Z,99.22
2019-02-06T11:29:32.339Z,99.41
2019-02-06T11:30:42.429Z,99.07
2019-02-06T11:31:52.285Z,99.12
2019-02-06T11:33:02.122Z,99.12
2019-02-06T11:34:11.952Z,99.22
2019-02-06T11:35:22.014Z,99.22
2019-02-06T11:36:32.332Z,99.36
2019-02-06T11:37:41.898Z,99.16
2019-02-06T11:38:51.979Z,99.55
2019-02-06T11:40:02.136Z,99.55
2019-02-06T11:41:11.983Z,99.74
2019-02-06T11:42:21.829Z,99.99
2019-02-06T11:43:34.662Z,99.99
2019-02-06T11:44:44.791Z,99.99
2019-02-06T11:45:54.866Z,99.99
2019-02-06T11:47:04.964Z,99.99
2019-02-06T11:48:15.034Z,99.99
2019-02-06T11:49:24.915Z,99.99
2019-02-06T11:50:35.020Z,99.99
2019-02-06T11:51:44.845Z,99.99
2019-02-06T11:52:54.702Z,99.99
2019-02-06T11:54:04.829Z,99.99
2019-02-06T11:55:14.956Z,99.99
2019-02-06T11:56:25.062Z,99.99
2019-02-06T11:57:35.144Z,99.99
2019-02-06T11:58:45.215Z,99.92
2019-02-06T11:59:55.764Z,99.54
2019-02-06T12:01:05.918Z,99.44
2019-02-06T12:02:16.014Z,99.3
2019-02-06T12:03:26.128Z,99.11
2019-02-06T12:04:36.199Z,99.3
2019-02-06T12:05:46.294Z,98.74
2019-02-06T12:06:56.176Z,98.45
2019-02-06T12:08:06.272Z,98.6
2019-02-06T12:09:18.874Z,98.5
2019-02-06T12:10:29.347Z,98.83
2019-02-06T12:11:40.143Z,98.64
2019-02-06T12:12:50.823Z,98.6
2019-02-06T12:14:01.562Z,98.69
2019-02-06T12:15:11.939Z,98.79
2019-02-06T12:16:23.558Z,98.69
2019-02-06T12:17:34.676Z,98.69
2019-02-06T12:18:45.254Z,98.6
2019-02-06T12:19:55.505Z,98.6
2019-02-06T12:21:05.657Z,98.69
2019-02-06T12:22:15.593Z,98.6
2019-02-06T12:23:34.474Z,99.16
2019-02-06T12:24:44.282Z,99.26
2019-02-06T12:25:54.114Z,99.07
2019-02-06T12:27:03.690Z,99.36
2019-02-06T12:28:13.760Z,99.16
2019-02-06T12:29:23.589Z,99.84
2019-02-06T12:30:33.171Z,99.21
2019-02-06T12:31:43.258Z,99.36
2019-02-06T12:32:54.940Z,99.55
2019-02-06T12:34:04.858Z,99.07
2019-02-06T12:35:14.958Z,99.26
2019-02-06T12:36:24.814Z,99.16
2019-02-06T12:37:35.041Z,99.07
2019-02-06T12:38:55.380Z,99.07
2019-02-06T12:40:05.573Z,99.84
2019-02-06T12:41:26.437Z,99.55
2019-02-06T12:42:36.265Z,99.36
2019-02-06T12:43:46.350Z,99.16
2019-02-06T12:44:58.913Z,99.45
2019-02-06T12:46:08.886Z,99.07
2019-02-06T12:47:18.721Z,98.97
2019-02-06T12:48:29.882Z,98.88
2019-02-06T12:49:39.968Z,98.69
2019-02-06T12:50:49.817Z,98.41
2019-02-06T12:51:59.494Z,98.5
2019-02-06T12:53:09.600Z,98.88
2019-02-06T12:54:19.446Z,98.6
2019-02-06T12:55:29.545Z,98.69
2019-02-06T12:56:39.646Z,98.88
2019-02-06T12:57:49.741Z,99.07
2019-02-06T12:58:59.636Z,99.07
2019-02-06T13:00:09.836Z,98.41
2019-02-06T13:01:19.974Z,99.26
2019-02-06T13:02:30.068Z,99.16
2019-02-06T13:03:40.152Z,99.55
2019-02-06T13:04:50.282Z,99.45
2019-02-06T13:06:00.139Z,99.55
2019-02-06T13:07:10.230Z,99.55
2019-02-06T13:08:20.348Z,99.36
2019-02-06T13:09:30.785Z,99.84
2019-02-06T13:10:41.669Z,99.55
2019-02-06T13:11:52.382Z,99.36
2019-02-06T13:13:03.677Z,99.45
2019-02-06T13:14:14.973Z,99.79
2019-02-06T13:15:25.882Z,99.69
2019-02-06T13:16:36.478Z,99.6
2019-02-06T13:17:47.011Z,99.55
2019-02-06T13:18:56.834Z,99.45
2019-02-06T13:20:06.644Z,99.41
2019-02-06T13:21:16.756Z,99.5
2019-02-06T13:22:26.847Z,99.79
2019-02-06T13:23:36.690Z,99.74
2019-02-06T13:24:47.050Z,99.26
2019-02-06T13:25:57.280Z,99.45
2019-02-06T13:27:07.366Z,99.45
2019-02-06T13:28:17.433Z,99.45
2019-02-06T13:29:27.290Z,99.45
2019-02-06T13:30:37.382Z,99.84
2019-02-06T13:31:47.473Z,99.26
2019-02-06T13:32:57.542Z,99.84
2019-02-06T13:34:07.375Z,99.84
2019-02-06T13:35:17.461Z,99.36
2019-02-06T13:36:27.550Z,99.55
2019-02-06T13:37:37.607Z,99.55
2019-02-06T13:38:47.444Z,99.64
2019-02-06T13:39:57.543Z,99.55
2019-02-06T13:41:07.634Z,99.69
2019-02-06T13:42:17.472Z,99.64
2019-02-06T13:43:27.587Z,99.55
2019-02-06T13:44:37.429Z,99.84
2019-02-06T13:45:48.868Z,99.74
2019-02-06T13:46:58.957Z,99.69
2019-02-06T13:48:09.040Z,99.88
2019-02-06T13:49:18.883Z,99.88
2019-02-06T13:50:29.005Z,99.69
2019-02-06T13:51:38.822Z,99.59
2019-02-06T13:52:48.892Z,99.59
2019-02-06T13:53:58.988Z,99.78
2019-02-06T13:55:09.095Z,99.59
2019-02-06T13:56:22.197Z,99.78
2019-02-06T13:57:36.265Z,99.78
2019-02-06T13:58:46.409Z,99.59
2019-02-06T13:59:56.489Z,99.5
2019-02-06T14:01:07.008Z,99.5
2019-02-06T14:02:28.526Z,99.99
2019-02-06T14:03:39.388Z,99.99
2019-02-06T14:04:50.266Z,99.99
2019-02-06T14:06:01.315Z,99.99
2019-02-06T14:07:14.345Z,99.99
2019-02-06T14:08:24.426Z,99.99
2019-02-06T14:09:34.505Z,99.99
2019-02-06T14:10:56.632Z,99.99
2019-02-06T14:12:08.935Z,99.99
2019-02-06T14:13:21.322Z,99.99
2019-02-06T14:14:31.469Z,99.99
2019-02-06T14:15:41.551Z,99.99
2019-02-06T14:16:51.523Z,99.99
2019-02-06T14:18:01.723Z,99.92
2019-02-06T14:19:11.810Z,99.99
2019-02-06T14:20:21.691Z,99.99
2019-02-06T14:21:31.778Z,99.99
2019-02-06T14:22:41.606Z,99.92
2019-02-06T14:23:51.432Z,99.99
2019-02-06T14:25:01.288Z,99.92
2019-02-06T14:26:14.128Z,99.73
2019-02-06T14:27:24.462Z,99.99
2019-02-06T14:28:44.401Z,99.99
2019-02-06T14:29:54.996Z,99.92
2019-02-06T14:31:05.503Z,99.99
2019-02-06T14:32:18.719Z,99.99
2019-02-06T14:33:31.356Z,99.99
2019-02-06T14:34:41.892Z,99.99
2019-02-06T14:35:52.572Z,99.99
2019-02-06T14:37:03.176Z,99.99
2019-02-06T14:38:13.470Z,99.99
2019-02-06T14:39:23.542Z,99.99
2019-02-06T14:40:33.362Z,99.99
2019-02-06T14:41:43.449Z,99.99
2019-02-06T14:42:53.522Z,99.99
2019-02-06T14:44:03.607Z,99.99
2019-02-06T14:45:13.693Z,99.99
2019-02-06T14:46:23.515Z,99.99
2019-02-06T14:47:33.607Z,99.99
2019-02-06T14:48:43.670Z,99.99
2019-02-06T14:49:53.782Z,99.99
2019-02-06T14:51:04.122Z,99.99
2019-02-06T14:52:14.222Z,99.99
2019-02-06T14:53:24.290Z,99.99
2019-02-06T14:54:34.382Z,99.99
2019-02-06T14:55:44.236Z,99.99
2019-02-06T14:56:54.320Z,99.99
2019-02-06T14:58:04.156Z,99.99
2019-02-06T14:59:14.244Z,99.99
2019-02-06T15:00:24.665Z,99.99
2019-02-06T15:01:34.768Z,99.99
2019-02-06T15:02:44.874Z,99.99
2019-02-06T15:03:54.960Z,99.99
2019-02-06T15:05:05.064Z,99.99
2019-02-06T15:06:14.978Z,99.99
2019-02-06T15:07:24.906Z,99.99
2019-02-06T15:08:35.037Z,99.99
2019-02-06T15:09:44.851Z,99.99
2019-02-06T15:10:54.947Z,99.99
2019-02-06T15:12:05.257Z,99.99
2019-02-06T15:13:15.351Z,99.99
2019-02-06T15:14:25.427Z,99.99
2019-02-06T15:15:35.529Z,99.99
2019-02-06T15:16:45.646Z,99.99
2019-02-06T15:17:55.772Z,99.99
2019-02-06T15:19:05.659Z,99.99
2019-02-06T15:20:15.744Z,99.99
2019-02-06T15:21:25.845Z,99.99
2019-02-06T15:22:35.932Z,99.99
2019-02-06T15:23:46.032Z,99.99
2019-02-06T15:24:56.132Z,99.99
2019-02-06T15:26:06.298Z,99.99
2019-02-06T15:27:17.005Z,99.99
2019-02-06T15:28:27.620Z,99.99
2019-02-06T15:29:38.238Z,99.99
2019-02-06T15:30:49.662Z,99.99
2019-02-06T15:32:01.778Z,99.99
2019-02-06T15:33:12.312Z,99.99
2019-02-06T15:34:22.411Z,99.99
2019-02-06T15:35:32.485Z,99.99
2019-02-06T15:36:42.595Z,99.99
2019-02-06T15:37:52.651Z,99.99
2019-02-06T15:39:04.232Z,99.99
2019-02-06T15:40:15.540Z,99.99